sensor_id;sensor_type;location;lat;lon;timestamp;P1;durP1;ratioP1;P2;durP2;ratioP2
13311;SDS011;34033;48.672;9.376;2023-02-23T00:01:09;15.33;;;8.43;;
13311;SDS011;34033;48.672;9.376;2023-02-23T00:03:35;11.40;;;7.30;;
13311;SDS011;34033;48.672;9.376;2023-02-23T00:06:04;13.73;;;7.37;;
13311;SDS011;34033;48.672;9.376;2023-02-23T00:08:29;10.50;;;7.10;;
13311;SDS011;34033;48.672;9.376;2023-02-23T00:10:54;9.03;;;6.40;;
13311;SDS011;34033;48.672;9.376;2023-02-23T00:13:22;14.63;;;7.10;;
13311;SDS011;34033;48.672;9.376;2023-02-23T00:15:48;10.47;;;7.07;;
13311;SDS011;34033;48.672;9.376;2023-02-23T00:18:13;9.57;;;6.97;;
13311;SDS011;34033;48.672;9.376;2023-02-23T00:20:38;9.00;;;6.47;;
13311;SDS011;34033;48.672;9.376;2023-02-23T00:23:08;9.47;;;6.83;;
13311;SDS011;34033;48.672;9.376;2023-02-23T00:25:33;13.70;;;7.40;;
13311;SDS011;34033;48.672;9.376;2023-02-23T00:28:02;12.53;;;7.70;;
13311;SDS011;34033;48.672;9.376;2023-02-23T00:30:31;12.13;;;7.83;;
13311;SDS011;34033;48.672;9.376;2023-02-23T00:32:56;13.30;;;8.17;;
13311;SDS011;34033;48.672;9.376;2023-02-23T00:35:21;13.43;;;7.03;;
13311;SDS011;34033;48.672;9.376;2023-02-23T00:37:49;15.13;;;7.20;;
13311;SDS011;34033;48.672;9.376;2023-02-23T00:40:15;14.33;;;7.57;;
13311;SDS011;34033;48.672;9.376;2023-02-23T00:42:42;12.17;;;7.23;;
13311;SDS011;34033;48.672;9.376;2023-02-23T00:45:09;11.67;;;7.77;;
13311;SDS011;34033;48.672;9.376;2023-02-23T00:47:37;12.20;;;7.57;;
13311;SDS011;34033;48.672;9.376;2023-02-23T00:50:03;11.87;;;7.40;;
13311;SDS011;34033;48.672;9.376;2023-02-23T00:52:29;8.53;;;6.30;;
13311;SDS011;34033;48.672;9.376;2023-02-23T00:54:55;11.17;;;7.03;;
13311;SDS011;34033;48.672;9.376;2023-02-23T00:57:20;12.20;;;6.93;;
13311;SDS011;34033;48.672;9.376;2023-02-23T00:59:47;12.47;;;6.63;;
13311;SDS011;34033;48.672;9.376;2023-02-23T01:02:13;10.33;;;6.53;;
13311;SDS011;34033;48.672;9.376;2023-02-23T01:04:38;11.10;;;6.73;;
13311;SDS011;34033;48.672;9.376;2023-02-23T01:07:03;11.13;;;6.60;;
13311;SDS011;34033;48.672;9.376;2023-02-23T01:09:30;11.73;;;6.80;;
13311;SDS011;34033;48.672;9.376;2023-02-23T01:11:56;10.90;;;7.70;;
13311;SDS011;34033;48.672;9.376;2023-02-23T01:14:25;12.20;;;7.30;;
13311;SDS011;34033;48.672;9.376;2023-02-23T01:16:52;10.17;;;6.63;;
13311;SDS011;34033;48.672;9.376;2023-02-23T01:19:17;9.87;;;6.50;;
13311;SDS011;34033;48.672;9.376;2023-02-23T01:21:43;10.80;;;7.47;;
13311;SDS011;34033;48.672;9.376;2023-02-23T01:24:08;10.07;;;6.97;;
13311;SDS011;34033;48.672;9.376;2023-02-23T01:26:36;12.27;;;7.03;;
13311;SDS011;34033;48.672;9.376;2023-02-23T01:29:08;12.57;;;7.73;;
13311;SDS011;34033;48.672;9.376;2023-02-23T01:31:36;8.80;;;6.47;;
13311;SDS011;34033;48.672;9.376;2023-02-23T01:34:03;10.30;;;7.17;;
13311;SDS011;34033;48.672;9.376;2023-02-23T01:36:32;8.63;;;6.70;;
13311;SDS011;34033;48.672;9.376;2023-02-23T01:38:59;10.57;;;7.23;;
13311;SDS011;34033;48.672;9.376;2023-02-23T01:41:25;12.23;;;7.60;;
13311;SDS011;34033;48.672;9.376;2023-02-23T01:44:06;11.03;;;7.40;;
13311;SDS011;34033;48.672;9.376;2023-02-23T01:46:38;13.10;;;7.37;;
13311;SDS011;34033;48.672;9.376;2023-02-23T01:49:06;12.47;;;7.40;;
13311;SDS011;34033;48.672;9.376;2023-02-23T01:51:42;14.17;;;7.57;;
13311;SDS011;34033;48.672;9.376;2023-02-23T01:54:14;10.13;;;7.47;;
13311;SDS011;34033;48.672;9.376;2023-02-23T01:56:44;10.87;;;6.80;;
13311;SDS011;34033;48.672;9.376;2023-02-23T01:59:15;11.37;;;7.50;;
13311;SDS011;34033;48.672;9.376;2023-02-23T02:01:41;8.57;;;6.63;;
13311;SDS011;34033;48.672;9.376;2023-02-23T02:04:08;14.87;;;7.50;;
13311;SDS011;34033;48.672;9.376;2023-02-23T02:06:40;12.97;;;8.03;;
13311;SDS011;34033;48.672;9.376;2023-02-23T02:09:07;10.00;;;7.43;;
13311;SDS011;34033;48.672;9.376;2023-02-23T02:11:47;10.27;;;7.37;;
13311;SDS011;34033;48.672;9.376;2023-02-23T02:14:19;8.47;;;6.83;;
13311;SDS011;34033;48.672;9.376;2023-02-23T02:20:33;14.47;;;8.60;;
13311;SDS011;34033;48.672;9.376;2023-02-23T02:25:41;12.93;;;8.30;;
13311;SDS011;34033;48.672;9.376;2023-02-23T02:39:12;10.50;;;7.20;;
13311;SDS011;34033;48.672;9.376;2023-02-23T02:42:08;12.13;;;7.77;;
13311;SDS011;34033;48.672;9.376;2023-02-23T02:44:56;9.33;;;6.80;;
13311;SDS011;34033;48.672;9.376;2023-02-23T02:52:38;11.03;;;7.40;;
13311;SDS011;34033;48.672;9.376;2023-02-23T02:55:23;15.93;;;8.30;;
13311;SDS011;34033;48.672;9.376;2023-02-23T02:57:52;13.60;;;8.10;;
13311;SDS011;34033;48.672;9.376;2023-02-23T03:00:29;11.20;;;7.77;;
13311;SDS011;34033;48.672;9.376;2023-02-23T03:03:27;10.47;;;7.17;;
13311;SDS011;34033;48.672;9.376;2023-02-23T03:06:12;11.73;;;7.07;;
13311;SDS011;34033;48.672;9.376;2023-02-23T03:09:33;15.10;;;7.20;;
13311;SDS011;34033;48.672;9.376;2023-02-23T03:12:25;10.40;;;6.97;;
13311;SDS011;34033;48.672;9.376;2023-02-23T03:21:14;11.47;;;7.27;;
13311;SDS011;34033;48.672;9.376;2023-02-23T03:27:00;11.07;;;7.27;;
13311;SDS011;34033;48.672;9.376;2023-02-23T03:29:59;12.13;;;7.30;;
13311;SDS011;34033;48.672;9.376;2023-02-23T03:32:51;10.63;;;7.27;;
13311;SDS011;34033;48.672;9.376;2023-02-23T03:35:42;10.03;;;7.07;;
13311;SDS011;34033;48.672;9.376;2023-02-23T03:38:33;13.07;;;7.50;;
13311;SDS011;34033;48.672;9.376;2023-02-23T03:41:22;10.93;;;7.37;;
13311;SDS011;34033;48.672;9.376;2023-02-23T03:44:10;14.80;;;8.13;;
13311;SDS011;34033;48.672;9.376;2023-02-23T03:46:59;11.40;;;8.13;;
13311;SDS011;34033;48.672;9.376;2023-02-23T03:49:46;10.67;;;7.57;;
13311;SDS011;34033;48.672;9.376;2023-02-23T03:52:33;11.57;;;7.80;;
13311;SDS011;34033;48.672;9.376;2023-02-23T03:55:26;14.13;;;8.07;;
13311;SDS011;34033;48.672;9.376;2023-02-23T03:58:17;10.70;;;7.87;;
13311;SDS011;34033;48.672;9.376;2023-02-23T04:01:07;9.17;;;7.27;;
13311;SDS011;34033;48.672;9.376;2023-02-23T04:03:53;10.77;;;7.60;;
13311;SDS011;34033;48.672;9.376;2023-02-23T04:06:42;14.57;;;8.03;;
13311;SDS011;34033;48.672;9.376;2023-02-23T04:09:28;10.93;;;7.73;;
13311;SDS011;34033;48.672;9.376;2023-02-23T04:12:27;10.93;;;7.70;;
13311;SDS011;34033;48.672;9.376;2023-02-23T04:15:22;10.33;;;7.53;;
13311;SDS011;34033;48.672;9.376;2023-02-23T04:17:52;12.63;;;7.70;;
13311;SDS011;34033;48.672;9.376;2023-02-23T04:20:18;12.13;;;6.87;;
13311;SDS011;34033;48.672;9.376;2023-02-23T04:22:44;10.37;;;7.30;;
13311;SDS011;34033;48.672;9.376;2023-02-23T04:25:09;10.63;;;7.60;;
13311;SDS011;34033;48.672;9.376;2023-02-23T04:27:37;10.67;;;8.10;;
13311;SDS011;34033;48.672;9.376;2023-02-23T04:30:02;10.73;;;7.30;;
13311;SDS011;34033;48.672;9.376;2023-02-23T04:32:28;11.80;;;7.30;;
13311;SDS011;34033;48.672;9.376;2023-02-23T04:34:54;9.93;;;7.20;;
13311;SDS011;34033;48.672;9.376;2023-02-23T04:37:19;12.40;;;8.20;;
13311;SDS011;34033;48.672;9.376;2023-02-23T04:39:44;12.63;;;8.07;;
13311;SDS011;34033;48.672;9.376;2023-02-23T04:42:13;11.13;;;7.57;;
13311;SDS011;34033;48.672;9.376;2023-02-23T04:44:39;10.47;;;7.27;;
13311;SDS011;34033;48.672;9.376;2023-02-23T04:47:04;8.97;;;7.27;;
13311;SDS011;34033;48.672;9.376;2023-02-23T04:49:29;15.50;;;7.27;;
13311;SDS011;34033;48.672;9.376;2023-02-23T04:51:55;10.77;;;7.57;;
13311;SDS011;34033;48.672;9.376;2023-02-23T04:54:20;11.23;;;7.73;;
13311;SDS011;34033;48.672;9.376;2023-02-23T04:56:45;11.23;;;7.67;;
13311;SDS011;34033;48.672;9.376;2023-02-23T04:59:11;10.20;;;7.53;;
13311;SDS011;34033;48.672;9.376;2023-02-23T05:01:37;10.80;;;7.17;;
13311;SDS011;34033;48.672;9.376;2023-02-23T05:04:02;10.77;;;7.30;;
13311;SDS011;34033;48.672;9.376;2023-02-23T05:06:28;11.13;;;7.40;;
13311;SDS011;34033;48.672;9.376;2023-02-23T05:08:54;14.53;;;7.60;;
13311;SDS011;34033;48.672;9.376;2023-02-23T05:11:20;10.63;;;7.33;;
13311;SDS011;34033;48.672;9.376;2023-02-23T05:13:45;9.37;;;6.87;;
13311;SDS011;34033;48.672;9.376;2023-02-23T05:16:10;13.07;;;7.23;;
13311;SDS011;34033;48.672;9.376;2023-02-23T05:18:36;13.23;;;7.40;;
13311;SDS011;34033;48.672;9.376;2023-02-23T05:21:04;13.47;;;7.40;;
13311;SDS011;34033;48.672;9.376;2023-02-23T05:23:32;9.90;;;7.37;;
13311;SDS011;34033;48.672;9.376;2023-02-23T05:26:06;13.23;;;7.63;;
13311;SDS011;34033;48.672;9.376;2023-02-23T05:28:34;12.00;;;7.63;;
13311;SDS011;34033;48.672;9.376;2023-02-23T05:31:01;10.40;;;7.53;;
13311;SDS011;34033;48.672;9.376;2023-02-23T05:33:27;10.17;;;7.17;;
13311;SDS011;34033;48.672;9.376;2023-02-23T05:35:53;9.83;;;7.50;;
13311;SDS011;34033;48.672;9.376;2023-02-23T05:38:19;12.17;;;7.70;;
13311;SDS011;34033;48.672;9.376;2023-02-23T05:40:45;10.20;;;7.67;;
13311;SDS011;34033;48.672;9.376;2023-02-23T05:43:10;11.43;;;7.87;;
13311;SDS011;34033;48.672;9.376;2023-02-23T05:45:38;11.80;;;8.23;;
13311;SDS011;34033;48.672;9.376;2023-02-23T05:48:05;9.70;;;7.80;;
13311;SDS011;34033;48.672;9.376;2023-02-23T05:50:31;8.50;;;7.07;;
13311;SDS011;34033;48.672;9.376;2023-02-23T05:52:57;12.20;;;7.43;;
13311;SDS011;34033;48.672;9.376;2023-02-23T05:55:22;10.77;;;7.97;;
13311;SDS011;34033;48.672;9.376;2023-02-23T05:57:48;11.07;;;7.67;;
13311;SDS011;34033;48.672;9.376;2023-02-23T06:00:14;10.20;;;7.47;;
13311;SDS011;34033;48.672;9.376;2023-02-23T06:02:40;11.67;;;7.80;;
13311;SDS011;34033;48.672;9.376;2023-02-23T06:05:06;11.10;;;7.17;;
13311;SDS011;34033;48.672;9.376;2023-02-23T06:07:32;14.27;;;7.60;;
13311;SDS011;34033;48.672;9.376;2023-02-23T06:09:57;11.07;;;7.90;;
13311;SDS011;34033;48.672;9.376;2023-02-23T06:12:23;10.37;;;7.77;;
13311;SDS011;34033;48.672;9.376;2023-02-23T06:14:48;12.33;;;8.23;;
13311;SDS011;34033;48.672;9.376;2023-02-23T06:17:14;12.37;;;8.60;;
13311;SDS011;34033;48.672;9.376;2023-02-23T06:19:40;18.20;;;8.67;;
13311;SDS011;34033;48.672;9.376;2023-02-23T06:22:05;14.73;;;10.00;;
13311;SDS011;34033;48.672;9.376;2023-02-23T06:24:31;13.07;;;8.73;;
13311;SDS011;34033;48.672;9.376;2023-02-23T06:26:58;15.33;;;10.63;;
13311;SDS011;34033;48.672;9.376;2023-02-23T06:29:23;16.07;;;10.87;;
13311;SDS011;34033;48.672;9.376;2023-02-23T06:31:49;13.20;;;9.63;;
13311;SDS011;34033;48.672;9.376;2023-02-23T06:34:14;15.83;;;11.10;;
13311;SDS011;34033;48.672;9.376;2023-02-23T06:36:39;18.93;;;11.87;;
13311;SDS011;34033;48.672;9.376;2023-02-23T06:39:05;18.70;;;12.40;;
13311;SDS011;34033;48.672;9.376;2023-02-23T06:41:31;17.80;;;10.67;;
13311;SDS011;34033;48.672;9.376;2023-02-23T06:43:56;15.13;;;10.10;;
13311;SDS011;34033;48.672;9.376;2023-02-23T06:46:22;15.17;;;9.33;;
13311;SDS011;34033;48.672;9.376;2023-02-23T06:48:48;12.03;;;9.37;;
13311;SDS011;34033;48.672;9.376;2023-02-23T06:51:14;12.17;;;7.57;;
13311;SDS011;34033;48.672;9.376;2023-02-23T06:53:39;13.23;;;8.27;;
13311;SDS011;34033;48.672;9.376;2023-02-23T06:56:04;12.30;;;9.40;;
13311;SDS011;34033;48.672;9.376;2023-02-23T06:58:30;14.30;;;9.77;;
13311;SDS011;34033;48.672;9.376;2023-02-23T07:00:55;15.20;;;9.30;;
13311;SDS011;34033;48.672;9.376;2023-02-23T07:03:22;10.20;;;8.67;;
13311;SDS011;34033;48.672;9.376;2023-02-23T07:05:48;15.13;;;9.03;;
13311;SDS011;34033;48.672;9.376;2023-02-23T07:08:16;14.30;;;9.73;;
13311;SDS011;34033;48.672;9.376;2023-02-23T07:10:42;18.17;;;11.10;;
13311;SDS011;34033;48.672;9.376;2023-02-23T07:13:08;18.10;;;12.17;;
13311;SDS011;34033;48.672;9.376;2023-02-23T07:15:37;14.90;;;9.60;;
13311;SDS011;34033;48.672;9.376;2023-02-23T07:18:04;13.17;;;8.33;;
13311;SDS011;34033;48.672;9.376;2023-02-23T07:20:30;15.40;;;9.23;;
13311;SDS011;34033;48.672;9.376;2023-02-23T07:22:56;15.03;;;10.23;;
13311;SDS011;34033;48.672;9.376;2023-02-23T07:25:22;15.53;;;10.77;;
13311;SDS011;34033;48.672;9.376;2023-02-23T07:27:47;15.87;;;9.50;;
13311;SDS011;34033;48.672;9.376;2023-02-23T07:30:13;14.87;;;9.47;;
13311;SDS011;34033;48.672;9.376;2023-02-23T07:32:39;12.70;;;8.97;;
13311;SDS011;34033;48.672;9.376;2023-02-23T07:35:05;14.73;;;9.03;;
13311;SDS011;34033;48.672;9.376;2023-02-23T07:37:31;17.57;;;9.03;;
13311;SDS011;34033;48.672;9.376;2023-02-23T07:39:56;13.57;;;8.47;;
13311;SDS011;34033;48.672;9.376;2023-02-23T07:42:21;13.60;;;8.63;;
13311;SDS011;34033;48.672;9.376;2023-02-23T07:44:47;12.43;;;8.50;;
13311;SDS011;34033;48.672;9.376;2023-02-23T07:47:12;12.63;;;8.57;;
13311;SDS011;34033;48.672;9.376;2023-02-23T07:49:37;12.63;;;8.40;;
13311;SDS011;34033;48.672;9.376;2023-02-23T07:52:03;15.83;;;8.33;;
13311;SDS011;34033;48.672;9.376;2023-02-23T07:54:28;12.53;;;8.17;;
13311;SDS011;34033;48.672;9.376;2023-02-23T07:56:54;10.43;;;7.93;;
13311;SDS011;34033;48.672;9.376;2023-02-23T07:59:19;15.83;;;8.90;;
13311;SDS011;34033;48.672;9.376;2023-02-23T08:01:44;16.57;;;8.63;;
13311;SDS011;34033;48.672;9.376;2023-02-23T08:04:10;11.60;;;8.37;;
13311;SDS011;34033;48.672;9.376;2023-02-23T08:06:35;13.80;;;8.73;;
13311;SDS011;34033;48.672;9.376;2023-02-23T08:09:01;15.63;;;8.53;;
13311;SDS011;34033;48.672;9.376;2023-02-23T08:11:28;12.60;;;8.90;;
13311;SDS011;34033;48.672;9.376;2023-02-23T08:13:53;13.73;;;9.20;;
13311;SDS011;34033;48.672;9.376;2023-02-23T08:16:24;12.17;;;8.67;;
13311;SDS011;34033;48.672;9.376;2023-02-23T08:18:52;17.37;;;9.20;;
13311;SDS011;34033;48.672;9.376;2023-02-23T08:21:18;15.87;;;9.50;;
13311;SDS011;34033;48.672;9.376;2023-02-23T08:23:43;11.97;;;8.07;;
13311;SDS011;34033;48.672;9.376;2023-02-23T08:26:09;15.70;;;9.07;;
13311;SDS011;34033;48.672;9.376;2023-02-23T08:28:35;11.17;;;7.90;;
13311;SDS011;34033;48.672;9.376;2023-02-23T08:31:01;11.53;;;8.13;;
13311;SDS011;34033;48.672;9.376;2023-02-23T08:33:26;18.00;;;9.30;;
13311;SDS011;34033;48.672;9.376;2023-02-23T08:35:52;11.77;;;8.60;;
13311;SDS011;34033;48.672;9.376;2023-02-23T08:38:17;13.57;;;8.73;;
13311;SDS011;34033;48.672;9.376;2023-02-23T08:40:42;15.90;;;8.80;;
13311;SDS011;34033;48.672;9.376;2023-02-23T08:43:08;11.73;;;8.33;;
13311;SDS011;34033;48.672;9.376;2023-02-23T08:45:33;12.90;;;8.60;;
13311;SDS011;34033;48.672;9.376;2023-02-23T08:47:58;13.03;;;9.07;;
13311;SDS011;34033;48.672;9.376;2023-02-23T08:50:24;12.63;;;9.60;;
13311;SDS011;34033;48.672;9.376;2023-02-23T08:52:49;10.50;;;8.20;;
13311;SDS011;34033;48.672;9.376;2023-02-23T08:55:14;13.63;;;9.07;;
13311;SDS011;34033;48.672;9.376;2023-02-23T08:57:42;13.10;;;9.20;;
13311;SDS011;34033;48.672;9.376;2023-02-23T09:00:07;12.93;;;8.87;;
13311;SDS011;34033;48.672;9.376;2023-02-23T09:02:40;11.23;;;8.80;;
13311;SDS011;34033;48.672;9.376;2023-02-23T09:05:07;13.40;;;8.70;;
13311;SDS011;34033;48.672;9.376;2023-02-23T09:07:33;11.57;;;8.43;;
13311;SDS011;34033;48.672;9.376;2023-02-23T09:09:58;12.77;;;8.30;;
13311;SDS011;34033;48.672;9.376;2023-02-23T09:12:24;12.67;;;8.23;;
13311;SDS011;34033;48.672;9.376;2023-02-23T09:14:49;11.70;;;8.37;;
13311;SDS011;34033;48.672;9.376;2023-02-23T09:17:16;12.83;;;8.40;;
13311;SDS011;34033;48.672;9.376;2023-02-23T09:19:41;10.67;;;8.23;;
13311;SDS011;34033;48.672;9.376;2023-02-23T09:22:07;12.10;;;7.80;;
13311;SDS011;34033;48.672;9.376;2023-02-23T09:24:32;10.50;;;8.13;;
13311;SDS011;34033;48.672;9.376;2023-02-23T09:26:59;10.27;;;8.17;;
13311;SDS011;34033;48.672;9.376;2023-02-23T09:29:25;10.13;;;7.47;;
13311;SDS011;34033;48.672;9.376;2023-02-23T09:31:50;12.47;;;8.40;;
13311;SDS011;34033;48.672;9.376;2023-02-23T09:34:17;10.80;;;8.47;;
13311;SDS011;34033;48.672;9.376;2023-02-23T09:36:43;13.07;;;8.30;;
13311;SDS011;34033;48.672;9.376;2023-02-23T09:39:08;10.63;;;8.10;;
13311;SDS011;34033;48.672;9.376;2023-02-23T09:50:02;12.43;;;8.23;;
13311;SDS011;34033;48.672;9.376;2023-02-23T09:52:34;12.13;;;8.87;;
13311;SDS011;34033;48.672;9.376;2023-02-23T09:55:04;13.63;;;8.57;;
13311;SDS011;34033;48.672;9.376;2023-02-23T09:57:36;12.30;;;8.90;;
13311;SDS011;34033;48.672;9.376;2023-02-23T10:03:04;12.53;;;8.30;;
13311;SDS011;34033;48.672;9.376;2023-02-23T10:05:33;11.80;;;8.00;;
13311;SDS011;34033;48.672;9.376;2023-02-23T10:08:10;13.57;;;8.77;;
13311;SDS011;34033;48.672;9.376;2023-02-23T10:10:49;10.00;;;8.00;;
13311;SDS011;34033;48.672;9.376;2023-02-23T10:13:35;11.07;;;8.03;;
13311;SDS011;34033;48.672;9.376;2023-02-23T10:16:23;11.17;;;7.73;;
13311;SDS011;34033;48.672;9.376;2023-02-23T10:19:11;10.57;;;7.53;;
13311;SDS011;34033;48.672;9.376;2023-02-23T10:21:48;11.43;;;8.43;;
13311;SDS011;34033;48.672;9.376;2023-02-23T10:24:21;9.60;;;7.00;;
13311;SDS011;34033;48.672;9.376;2023-02-23T10:26:52;13.17;;;7.07;;
13311;SDS011;34033;48.672;9.376;2023-02-23T10:32:43;6.70;;;5.77;;
13311;SDS011;34033;48.672;9.376;2023-02-23T10:34:50;8.43;;;6.70;;
13311;SDS011;34033;48.672;9.376;2023-02-23T10:37:18;8.23;;;6.23;;
13311;SDS011;34033;48.672;9.376;2023-02-23T10:39:44;7.23;;;6.07;;
13311;SDS011;34033;48.672;9.376;2023-02-23T10:42:13;7.80;;;6.37;;
13311;SDS011;34033;48.672;9.376;2023-02-23T10:44:42;6.37;;;5.07;;
13311;SDS011;34033;48.672;9.376;2023-02-23T10:47:13;10.00;;;4.60;;
13311;SDS011;34033;48.672;9.376;2023-02-23T10:49:42;5.40;;;4.37;;
13311;SDS011;34033;48.672;9.376;2023-02-23T10:52:20;5.97;;;4.10;;
13311;SDS011;34033;48.672;9.376;2023-02-23T10:54:51;4.87;;;3.87;;
13311;SDS011;34033;48.672;9.376;2023-02-23T10:57:28;5.37;;;4.13;;
13311;SDS011;34033;48.672;9.376;2023-02-23T11:02:30;5.93;;;4.40;;
13311;SDS011;34033;48.672;9.376;2023-02-23T11:04:58;5.80;;;4.33;;
13311;SDS011;34033;48.672;9.376;2023-02-23T11:07:31;6.23;;;4.57;;
13311;SDS011;34033;48.672;9.376;2023-02-23T11:09:57;6.40;;;4.53;;
13311;SDS011;34033;48.672;9.376;2023-02-23T11:14:59;4.63;;;4.17;;
13311;SDS011;34033;48.672;9.376;2023-02-23T11:17:56;4.30;;;3.90;;
13311;SDS011;34033;48.672;9.376;2023-02-23T11:20:39;5.33;;;4.23;;
13311;SDS011;34033;48.672;9.376;2023-02-23T11:23:09;7.07;;;4.70;;
13311;SDS011;34033;48.672;9.376;2023-02-23T11:25:41;5.20;;;4.17;;
13311;SDS011;34033;48.672;9.376;2023-02-23T11:28:15;9.30;;;4.13;;
13311;SDS011;34033;48.672;9.376;2023-02-23T11:30:46;5.23;;;4.17;;
13311;SDS011;34033;48.672;9.376;2023-02-23T11:33:16;9.07;;;4.80;;
13311;SDS011;34033;48.672;9.376;2023-02-23T11:35:47;5.13;;;3.73;;
13311;SDS011;34033;48.672;9.376;2023-02-23T11:38:21;4.87;;;3.97;;
13311;SDS011;34033;48.672;9.376;2023-02-23T11:40:58;3.87;;;3.47;;
13311;SDS011;34033;48.672;9.376;2023-02-23T11:43:29;6.10;;;3.93;;
13311;SDS011;34033;48.672;9.376;2023-02-23T11:45:55;5.33;;;3.90;;
13311;SDS011;34033;48.672;9.376;2023-02-23T11:48:32;7.07;;;3.70;;
13311;SDS011;34033;48.672;9.376;2023-02-23T11:51:02;5.57;;;3.97;;
13311;SDS011;34033;48.672;9.376;2023-02-23T11:56:02;6.60;;;3.50;;
13311;SDS011;34033;48.672;9.376;2023-02-23T11:58:52;6.03;;;3.80;;
13311;SDS011;34033;48.672;9.376;2023-02-23T12:01:32;7.30;;;4.07;;
13311;SDS011;34033;48.672;9.376;2023-02-23T12:04:01;5.10;;;3.90;;
13311;SDS011;34033;48.672;9.376;2023-02-23T12:06:37;3.10;;;2.83;;
13311;SDS011;34033;48.672;9.376;2023-02-23T12:09:25;5.23;;;3.20;;
13311;SDS011;34033;48.672;9.376;2023-02-23T12:17:23;4.53;;;2.77;;
13311;SDS011;34033;48.672;9.376;2023-02-23T12:22:54;4.37;;;2.33;;
13311;SDS011;34033;48.672;9.376;2023-02-23T12:25:40;4.57;;;2.60;;
13311;SDS011;34033;48.672;9.376;2023-02-23T12:28:13;4.83;;;2.73;;
13311;SDS011;34033;48.672;9.376;2023-02-23T12:30:49;4.23;;;2.70;;
13311;SDS011;34033;48.672;9.376;2023-02-23T12:41:42;3.93;;;2.60;;
13311;SDS011;34033;48.672;9.376;2023-02-23T12:47:08;3.70;;;2.70;;
13311;SDS011;34033;48.672;9.376;2023-02-23T12:49:45;2.27;;;2.07;;
13311;SDS011;34033;48.672;9.376;2023-02-23T12:52:21;2.40;;;2.20;;
13311;SDS011;34033;48.672;9.376;2023-02-23T12:54:51;6.13;;;2.30;;
13311;SDS011;34033;48.672;9.376;2023-02-23T12:57:36;7.30;;;2.70;;
13311;SDS011;34033;48.672;9.376;2023-02-23T13:00:18;6.10;;;2.63;;
13311;SDS011;34033;48.672;9.376;2023-02-23T13:06:09;4.10;;;2.40;;
13311;SDS011;34033;48.672;9.376;2023-02-23T13:08:50;6.17;;;2.43;;
13311;SDS011;34033;48.672;9.376;2023-02-23T13:14:46;2.73;;;2.27;;
13311;SDS011;34033;48.672;9.376;2023-02-23T13:17:32;3.70;;;2.33;;
13311;SDS011;34033;48.672;9.376;2023-02-23T13:20:39;3.37;;;2.30;;
13311;SDS011;34033;48.672;9.376;2023-02-23T13:23:03;4.97;;;2.07;;
13311;SDS011;34033;48.672;9.376;2023-02-23T13:28:17;2.43;;;1.90;;
13311;SDS011;34033;48.672;9.376;2023-02-23T13:31:06;2.20;;;1.90;;
13311;SDS011;34033;48.672;9.376;2023-02-23T13:33:58;4.13;;;2.27;;
13311;SDS011;34033;48.672;9.376;2023-02-23T13:36:25;5.03;;;2.53;;
13311;SDS011;34033;48.672;9.376;2023-02-23T13:41:45;3.30;;;2.20;;
13311;SDS011;34033;48.672;9.376;2023-02-23T13:46:47;2.53;;;1.97;;
13311;SDS011;34033;48.672;9.376;2023-02-23T13:49:25;5.07;;;2.30;;
13311;SDS011;34033;48.672;9.376;2023-02-23T13:57:49;3.90;;;1.90;;
13311;SDS011;34033;48.672;9.376;2023-02-23T14:00:18;4.20;;;2.30;;
13311;SDS011;34033;48.672;9.376;2023-02-23T14:02:46;4.20;;;2.10;;
13311;SDS011;34033;48.672;9.376;2023-02-23T14:05:19;2.40;;;1.77;;
13311;SDS011;34033;48.672;9.376;2023-02-23T14:07:47;3.70;;;2.07;;
13311;SDS011;34033;48.672;9.376;2023-02-23T14:18:26;2.40;;;2.00;;
13311;SDS011;34033;48.672;9.376;2023-02-23T14:21:01;3.77;;;2.00;;
13311;SDS011;34033;48.672;9.376;2023-02-23T14:28:44;3.83;;;1.97;;
13311;SDS011;34033;48.672;9.376;2023-02-23T14:31:30;5.87;;;2.43;;
13311;SDS011;34033;48.672;9.376;2023-02-23T14:33:58;3.70;;;2.07;;
13311;SDS011;34033;48.672;9.376;2023-02-23T14:41:21;1.80;;;1.70;;
13311;SDS011;34033;48.672;9.376;2023-02-23T14:43:53;2.00;;;1.80;;
13311;SDS011;34033;48.672;9.376;2023-02-23T14:46:23;2.00;;;1.80;;
13311;SDS011;34033;48.672;9.376;2023-02-23T14:51:35;2.40;;;2.03;;
13311;SDS011;34033;48.672;9.376;2023-02-23T14:54:02;4.27;;;2.40;;
13311;SDS011;34033;48.672;9.376;2023-02-23T14:56:35;3.83;;;2.10;;
13311;SDS011;34033;48.672;9.376;2023-02-23T14:59:12;3.70;;;2.20;;
13311;SDS011;34033;48.672;9.376;2023-02-23T15:01:44;3.00;;;2.27;;
13311;SDS011;34033;48.672;9.376;2023-02-23T15:04:21;4.10;;;1.90;;
13311;SDS011;34033;48.672;9.376;2023-02-23T15:06:51;3.30;;;1.80;;
13311;SDS011;34033;48.672;9.376;2023-02-23T15:09:30;2.50;;;2.00;;
13311;SDS011;34033;48.672;9.376;2023-02-23T15:12:12;4.13;;;1.90;;
13311;SDS011;34033;48.672;9.376;2023-02-23T15:14:42;3.47;;;1.80;;
13311;SDS011;34033;48.672;9.376;2023-02-23T15:17:11;2.63;;;1.70;;
13311;SDS011;34033;48.672;9.376;2023-02-23T15:19:41;2.90;;;2.17;;
13311;SDS011;34033;48.672;9.376;2023-02-23T15:22:13;6.50;;;1.80;;
13311;SDS011;34033;48.672;9.376;2023-02-23T15:24:54;3.27;;;2.20;;
13311;SDS011;34033;48.672;9.376;2023-02-23T15:27:22;2.27;;;1.77;;
13311;SDS011;34033;48.672;9.376;2023-02-23T15:29:53;2.30;;;2.03;;
13311;SDS011;34033;48.672;9.376;2023-02-23T15:32:23;3.10;;;2.10;;
13311;SDS011;34033;48.672;9.376;2023-02-23T15:34:53;2.73;;;2.00;;
13311;SDS011;34033;48.672;9.376;2023-02-23T15:37:32;3.30;;;2.00;;
13311;SDS011;34033;48.672;9.376;2023-02-23T15:40:01;3.50;;;1.73;;
13311;SDS011;34033;48.672;9.376;2023-02-23T15:42:31;5.77;;;2.03;;
13311;SDS011;34033;48.672;9.376;2023-02-23T15:45:02;4.00;;;2.10;;
13311;SDS011;34033;48.672;9.376;2023-02-23T15:47:38;2.20;;;2.00;;
13311;SDS011;34033;48.672;9.376;2023-02-23T15:50:06;4.37;;;2.33;;
13311;SDS011;34033;48.672;9.376;2023-02-23T15:52:38;5.27;;;2.33;;
13311;SDS011;34033;48.672;9.376;2023-02-23T15:55:11;5.33;;;2.30;;
13311;SDS011;34033;48.672;9.376;2023-02-23T15:57:43;5.57;;;2.33;;
13311;SDS011;34033;48.672;9.376;2023-02-23T16:00:18;3.50;;;2.10;;
13311;SDS011;34033;48.672;9.376;2023-02-23T16:03:00;6.17;;;3.13;;
13311;SDS011;34033;48.672;9.376;2023-02-23T16:05:29;3.10;;;2.80;;
13311;SDS011;34033;48.672;9.376;2023-02-23T16:08:04;3.73;;;2.40;;
13311;SDS011;34033;48.672;9.376;2023-02-23T16:10:44;3.73;;;2.57;;
13311;SDS011;34033;48.672;9.376;2023-02-23T16:13:12;5.37;;;2.47;;
13311;SDS011;34033;48.672;9.376;2023-02-23T16:15:41;6.30;;;2.60;;
13311;SDS011;34033;48.672;9.376;2023-02-23T16:18:11;7.27;;;2.40;;
13311;SDS011;34033;48.672;9.376;2023-02-23T16:23:50;2.60;;;2.40;;
13311;SDS011;34033;48.672;9.376;2023-02-23T16:26:05;9.30;;;2.57;;
13311;SDS011;34033;48.672;9.376;2023-02-23T16:28:32;4.73;;;2.90;;
13311;SDS011;34033;48.672;9.376;2023-02-23T16:31:05;8.73;;;2.70;;
13311;SDS011;34033;48.672;9.376;2023-02-23T16:41:11;7.07;;;2.60;;
13311;SDS011;34033;48.672;9.376;2023-02-23T16:43:40;3.80;;;2.60;;
13311;SDS011;34033;48.672;9.376;2023-02-23T16:46:06;5.30;;;2.53;;
13311;SDS011;34033;48.672;9.376;2023-02-23T16:48:31;4.80;;;2.57;;
13311;SDS011;34033;48.672;9.376;2023-02-23T16:50:57;6.60;;;3.83;;
13311;SDS011;34033;48.672;9.376;2023-02-23T16:53:22;7.97;;;2.93;;
13311;SDS011;34033;48.672;9.376;2023-02-23T16:55:49;4.10;;;2.80;;
13311;SDS011;34033;48.672;9.376;2023-02-23T16:58:23;3.87;;;2.83;;
13311;SDS011;34033;48.672;9.376;2023-02-23T17:00:49;4.60;;;2.40;;
13311;SDS011;34033;48.672;9.376;2023-02-23T17:03:23;3.40;;;2.60;;
13311;SDS011;34033;48.672;9.376;2023-02-23T17:05:50;3.30;;;2.97;;